createdAt,value
2022-11-10T00:01:04.809Z,100684.09
2022-11-10T00:03:31.365Z,100665.06
2022-11-10T00:05:57.925Z,100705.03
2022-11-10T00:08:24.526Z,100703.25
2022-11-10T00:11:01.952Z,100698.81
2022-11-10T00:13:33.473Z,100709.59
2022-11-10T00:16:20.800Z,100703.38
2022-11-10T00:18:47.381Z,100695.59
2022-11-10T00:21:15.879Z,100707.69
2022-11-10T00:23:42.800Z,100695.16
2022-11-10T00:26:19.828Z,100728.44
2022-11-10T00:28:46.772Z,100725.94
2022-11-10T00:31:13.801Z,100726.78
2022-11-10T00:33:43.081Z,100745.19
2022-11-10T00:36:10.128Z,100731.84
2022-11-10T00:38:36.702Z,100749.25
2022-11-10T00:41:04.122Z,100746.53
2022-11-10T00:43:30.917Z,100752.75
2022-11-10T00:45:58.013Z,100751.97
2022-11-10T00:48:24.744Z,100759.84
2022-11-10T00:50:51.480Z,100767.03
2022-11-10T00:53:18.185Z,100769.75
2022-11-10T00:55:45.056Z,100767.16
2022-11-10T00:58:11.609Z,100783.19
2022-11-10T01:00:38.188Z,100782.31
2022-11-10T01:03:04.843Z,100803.53
2022-11-10T01:05:31.771Z,100791.31
2022-11-10T01:08:01.935Z,100790.72
2022-11-10T01:10:28.631Z,100807.34
2022-11-10T01:12:55.351Z,100807.47
2022-11-10T01:15:27.272Z,100806.44
2022-11-10T01:17:55.900Z,100811.84
2022-11-10T01:20:23.240Z,100817.06
2022-11-10T01:22:49.831Z,100802.69
2022-11-10T01:25:16.607Z,100818.16
2022-11-10T01:27:43.221Z,100823.41
2022-11-10T01:30:10.412Z,100823.28
2022-11-10T01:32:38.329Z,100825.97
2022-11-10T01:35:05.604Z,100832.28
2022-11-10T01:37:32.167Z,100837.06
2022-11-10T01:39:58.973Z,100832.97
2022-11-10T01:42:44.389Z,100817.78
2022-11-10T01:45:51.479Z,100844.03
2022-11-10T01:48:27.165Z,100837.19
2022-11-10T01:50:54.891Z,100841.81
2022-11-10T01:53:25.092Z,100844.47
2022-11-10T01:55:53.196Z,100847.13
2022-11-10T01:58:27.141Z,100824.69
2022-11-10T02:00:54.573Z,100848.03
2022-11-10T02:03:24.340Z,100856.09
2022-11-10T02:05:51.330Z,100855.31
2022-11-10T02:08:18.701Z,100863.06
2022-11-10T02:10:45.352Z,100855.84
2022-11-10T02:13:12.246Z,100870.69
2022-11-10T02:15:39.231Z,100863.06
2022-11-10T02:18:05.879Z,100864.94
2022-11-10T02:20:32.388Z,100865.72
2022-11-10T02:22:58.993Z,100865.72
2022-11-10T02:25:30.356Z,100863.16
2022-11-10T02:27:56.831Z,100875.38
2022-11-10T02:30:27.524Z,100875.31
2022-11-10T02:32:54.389Z,100845.03
2022-11-10T02:35:20.972Z,100870.19
2022-11-10T02:37:47.519Z,100845.03
2022-11-10T02:40:14.054Z,100866.94
2022-11-10T02:42:40.616Z,100868.78
2022-11-10T02:45:08.853Z,100873.25
2022-11-10T02:47:35.728Z,100879.50
2022-11-10T02:50:02.324Z,100878.03
2022-11-10T02:52:28.800Z,100866.69
2022-11-10T02:54:55.402Z,100824.09
2022-11-10T02:57:21.916Z,100863.91
2022-11-10T02:59:48.414Z,100859.59
2022-11-10T03:02:15.428Z,100865.84
2022-11-10T03:04:42.186Z,100877.41
2022-11-10T03:07:08.691Z,100879.41
2022-11-10T03:09:35.289Z,100883.03
2022-11-10T03:12:01.854Z,100899.00
2022-11-10T03:14:28.384Z,100896.56
2022-11-10T03:16:54.879Z,100913.22
2022-11-10T03:19:21.375Z,100909.00
2022-11-10T03:21:48.232Z,100883.88
2022-11-10T03:24:14.766Z,100907.25
2022-11-10T03:26:41.295Z,100919.56
2022-11-10T03:29:07.941Z,100910.03
2022-11-10T03:31:34.474Z,100923.28
2022-11-10T03:34:01.077Z,100931.25
2022-11-10T03:36:27.617Z,100934.91
2022-11-10T03:38:54.175Z,100929.59
2022-11-10T03:41:21.031Z,100935.78
2022-11-10T03:43:48.945Z,100944.59
2022-11-10T03:46:15.856Z,100950.78
2022-11-10T03:48:42.780Z,100945.59
2022-11-10T03:51:09.339Z,100949.19
2022-11-10T03:53:35.905Z,100925.94
2022-11-10T03:56:05.146Z,100940.84
2022-11-10T03:58:31.732Z,100959.09
2022-11-10T04:00:58.573Z,100946.25
2022-11-10T04:03:25.539Z,100974.22
2022-11-10T04:06:11.207Z,100956.06
2022-11-10T04:08:56.259Z,100991.09
2022-11-10T04:11:41.655Z,100978.97
2022-11-10T04:14:27.077Z,100971.19
2022-11-10T04:16:53.809Z,100983.44
2022-11-10T04:19:20.408Z,100968.03
2022-11-10T04:21:47.506Z,100992.38
2022-11-10T04:24:14.029Z,101002.13
2022-11-10T04:26:42.821Z,100979.72
2022-11-10T04:29:11.371Z,101006.63
2022-11-10T04:31:39.722Z,100999.66
2022-11-10T04:34:08.455Z,101012.78
2022-11-10T04:36:37.605Z,101012.81
2022-11-10T04:39:06.283Z,101004.06
2022-11-10T04:41:33.165Z,100999.41
2022-11-10T04:44:00.735Z,101001.09
2022-11-10T04:46:30.261Z,101011.66
2022-11-10T04:48:57.479Z,101011.50
2022-11-10T04:51:36.373Z,101007.59
2022-11-10T04:54:03.781Z,101002.34
2022-11-10T04:56:30.891Z,101019.78
2022-11-10T04:58:57.589Z,101027.63
2022-11-10T05:01:26.920Z,101030.34
2022-11-10T05:03:54.125Z,101030.16
2022-11-10T05:06:21.604Z,101044.13
2022-11-10T05:08:48.234Z,101032.31
2022-11-10T05:11:15.271Z,101049.81
2022-11-10T05:13:43.150Z,101058.72
2022-11-10T05:16:10.614Z,101065.91
2022-11-10T05:18:37.525Z,101062.56
2022-11-10T05:21:04.178Z,101068.84
2022-11-10T05:23:40.316Z,101071.56
2022-11-10T05:26:12.950Z,101045.69
2022-11-10T05:28:40.904Z,101069.16
2022-11-10T05:31:07.929Z,101067.75
2022-11-10T05:33:37.733Z,101086.06
2022-11-10T05:36:05.713Z,101089.63
2022-11-10T05:38:32.569Z,101103.75
2022-11-10T05:40:59.222Z,101102.94
2022-11-10T05:43:30.661Z,101118.81
2022-11-10T05:45:57.276Z,101114.53
2022-11-10T05:48:23.782Z,101114.56
2022-11-10T05:50:50.362Z,101107.66
2022-11-10T05:53:17.938Z,101117.16
2022-11-10T05:55:44.493Z,101113.59
2022-11-10T05:58:11.065Z,101121.28
2022-11-10T06:00:37.632Z,101122.06
2022-11-10T06:03:08.191Z,101128.19
2022-11-10T06:05:35.696Z,101143.16
2022-11-10T06:08:04.107Z,101151.16
2022-11-10T06:10:31.322Z,101148.47
2022-11-10T06:12:57.849Z,101147.66
2022-11-10T06:15:24.998Z,101141.66
2022-11-10T06:17:52.255Z,101162.44
2022-11-10T06:20:19.469Z,101173.00
2022-11-10T06:23:04.131Z,101191.53
2022-11-10T06:25:32.166Z,101200.44
2022-11-10T06:27:59.683Z,101200.44
2022-11-10T06:30:27.749Z,101201.41
2022-11-10T06:32:54.906Z,101208.38
2022-11-10T06:35:22.639Z,101211.91
2022-11-10T06:38:11.711Z,101217.16
2022-11-10T06:40:38.618Z,101204.22
2022-11-10T06:43:05.208Z,101229.28
2022-11-10T06:45:31.759Z,101235.31
2022-11-10T06:48:06.323Z,101230.81
2022-11-10T06:50:33.375Z,101236.75
2022-11-10T06:53:01.671Z,101232.31
2022-11-10T06:55:29.278Z,101245.47
2022-11-10T06:57:55.878Z,101248.97
2022-11-10T07:00:22.529Z,101244.53
2022-11-10T07:02:57.860Z,101250.53
2022-11-10T07:05:24.516Z,101247.03
2022-11-10T07:07:51.606Z,101257.44
2022-11-10T07:10:18.281Z,101265.00
2022-11-10T07:12:44.805Z,101279.03
2022-11-10T07:15:11.339Z,101287.13
2022-11-10T07:17:41.378Z,101289.09
2022-11-10T07:20:08.638Z,101309.41
2022-11-10T07:22:35.139Z,101310.34
2022-11-10T07:25:01.670Z,101312.31
2022-11-10T07:27:28.378Z,101300.16
2022-11-10T07:29:54.924Z,101321.97
2022-11-10T07:32:21.481Z,101332.53
2022-11-10T07:34:48.199Z,101337.78
2022-11-10T07:37:14.765Z,101343.88
2022-11-10T07:39:41.282Z,101338.47
2022-11-10T07:42:08.206Z,101316.69
2022-11-10T07:44:34.896Z,101340.84
2022-11-10T07:47:01.415Z,101345.97
2022-11-10T07:49:28.011Z,101342.44
2022-11-10T07:51:54.511Z,101325.16
2022-11-10T07:54:21.123Z,101358.25
2022-11-10T07:56:47.770Z,101360.91
2022-11-10T07:59:14.375Z,101368.66
2022-11-10T08:01:41.064Z,101360.47
2022-11-10T08:04:07.735Z,101362.75
2022-11-10T08:06:36.261Z,101370.28
2022-11-10T08:09:03.171Z,101356.94
2022-11-10T08:11:29.700Z,101381.53
2022-11-10T08:14:01.834Z,101371.19
2022-11-10T08:16:28.355Z,101377.41
2022-11-10T08:18:54.921Z,101374.69
2022-11-10T08:21:21.422Z,101364.56
2022-11-10T08:23:48.108Z,101369.41
2022-11-10T08:26:16.644Z,101372.66
2022-11-10T08:28:44.215Z,101370.88
2022-11-10T08:31:10.741Z,101377.66
2022-11-10T08:33:37.334Z,101353.75
2022-11-10T08:36:03.911Z,101371.81
2022-11-10T08:38:30.572Z,101369.25
2022-11-10T08:40:57.624Z,101377.81
2022-11-10T08:43:24.854Z,101380.50
2022-11-10T08:45:55.908Z,101364.19
2022-11-10T08:48:23.075Z,101365.16
2022-11-10T08:50:50.424Z,101384.22
2022-11-10T08:53:23.975Z,101388.63
2022-11-10T08:55:51.484Z,101395.56
2022-11-10T08:58:22.782Z,101384.28
2022-11-10T09:00:50.483Z,101393.00
2022-11-10T09:03:22.837Z,101402.59
2022-11-10T09:05:56.636Z,101417.72
2022-11-10T09:08:24.912Z,101416.03
2022-11-10T09:10:51.492Z,101426.41
2022-11-10T09:13:19.563Z,101424.31
2022-11-10T09:15:48.095Z,101424.75
2022-11-10T09:18:15.363Z,101427.88
2022-11-10T09:20:42.188Z,101437.84
2022-11-10T09:23:17.380Z,101441.84
2022-11-10T09:25:49.886Z,101433.31
2022-11-10T09:28:16.872Z,101440.38
2022-11-10T09:30:46.525Z,101428.50
2022-11-10T09:33:13.570Z,101414.53
2022-11-10T09:35:40.590Z,101459.88
2022-11-10T09:38:07.194Z,101438.66
2022-11-10T09:40:52.012Z,101462.50
2022-11-10T09:43:39.545Z,101460.66
2022-11-10T09:46:37.880Z,101472.63
2022-11-10T09:49:25.187Z,101472.78
2022-11-10T09:51:53.710Z,101475.06
2022-11-10T09:54:22.808Z,101471.16
2022-11-10T09:56:53.465Z,101483.09
2022-11-10T09:59:25.071Z,101484.91
2022-11-10T10:01:54.752Z,101494.78
2022-11-10T10:04:48.805Z,101477.97
2022-11-10T10:07:27.001Z,101489.50
2022-11-10T10:10:04.058Z,101507.31
2022-11-10T10:13:14.146Z,101503.28
2022-11-10T10:15:59.405Z,101504.53
2022-11-10T10:18:51.113Z,101507.13
2022-11-10T10:21:45.698Z,101505.53
2022-11-10T10:24:21.531Z,101488.31
2022-11-10T10:26:54.746Z,101508.91
2022-11-10T10:29:45.216Z,101510.84
2022-11-10T10:32:14.354Z,101482.25
2022-11-10T10:34:42.050Z,101509.28
2022-11-10T10:37:23.618Z,101496.03
2022-11-10T10:39:54.888Z,101501.69
2022-11-10T10:42:27.512Z,101489.38
2022-11-10T10:45:20.953Z,101499.22
2022-11-10T10:47:50.278Z,101508.75
2022-11-10T10:50:24.894Z,101495.84
2022-11-10T10:53:20.526Z,101502.97
2022-11-10T10:55:51.973Z,101501.13
2022-11-10T10:58:30.326Z,101505.84
2022-11-10T11:01:15.155Z,101505.22
2022-11-10T11:03:53.026Z,101500.38
2022-11-10T11:06:27.134Z,101503.59
2022-11-10T11:09:18.490Z,101508.19
2022-11-10T11:11:46.470Z,101506.59
2022-11-10T11:14:20.124Z,101516.41
2022-11-10T11:16:52.824Z,101507.25
2022-11-10T11:19:22.859Z,101507.66
2022-11-10T11:22:28.274Z,101516.53
2022-11-10T11:25:20.035Z,101495.72
2022-11-10T11:28:03.734Z,101517.06
2022-11-10T11:30:47.771Z,101528.50
2022-11-10T11:33:35.944Z,101522.03
2022-11-10T11:36:24.314Z,101518.81
2022-11-10T11:39:04.693Z,101524.53
2022-11-10T11:41:46.449Z,101506.34
2022-11-10T11:44:26.862Z,101518.09
2022-11-10T11:46:53.565Z,101521.22
2022-11-10T11:50:02.151Z,101518.78
2022-11-10T11:52:37.969Z,101524.53
2022-11-10T11:55:10.562Z,101509.16
2022-11-10T11:58:05.702Z,101527.09
2022-11-10T12:00:47.471Z,101528.72
2022-11-10T12:03:32.218Z,101504.47
2022-11-10T12:06:29.441Z,101517.13
2022-11-10T12:09:01.909Z,101518.91
2022-11-10T12:12:03.461Z,101517.56
2022-11-10T12:15:07.858Z,101524.66
2022-11-10T12:17:47.319Z,101515.03
2022-11-10T12:20:24.773Z,101526.75
2022-11-10T12:23:31.184Z,101527.91
2022-11-10T12:26:04.592Z,101524.63
2022-11-10T12:28:46.260Z,101525.97
2022-11-10T12:31:20.713Z,101531.59
2022-11-10T12:33:59.452Z,101522.69
2022-11-10T12:36:28.462Z,101530.72
2022-11-10T12:39:05.033Z,101505.63
2022-11-10T12:41:39.968Z,101537.75
2022-11-10T12:44:20.829Z,101529.78
2022-11-10T12:46:54.262Z,101533.72
2022-11-10T12:49:45.137Z,101539.66
2022-11-10T12:52:40.431Z,101531.69
2022-11-10T12:55:11.429Z,101537.81
2022-11-10T12:57:38.359Z,101528.03
2022-11-10T13:00:08.259Z,101530.63
2022-11-10T13:02:42.362Z,101522.78
2022-11-10T13:05:22.021Z,101533.13
2022-11-10T13:07:51.219Z,101542.72
2022-11-10T13:10:26.554Z,101548.84
2022-11-10T13:13:05.139Z,101555.47
2022-11-10T13:15:44.023Z,101549.94
2022-11-10T13:18:21.925Z,101556.50
2022-11-10T13:20:50.208Z,101555.16
2022-11-10T13:23:55.487Z,101548.72
2022-11-10T13:26:40.067Z,101557.13
2022-11-10T13:29:45.045Z,101553.56
2022-11-10T13:32:11.538Z,101555.22
2022-11-10T13:34:39.611Z,101559.75
2022-11-10T13:37:29.395Z,101556.50
2022-11-10T13:40:19.998Z,101552.25
2022-11-10T13:42:58.821Z,101525.41
2022-11-10T13:45:34.980Z,101547.25
2022-11-10T13:48:13.672Z,101555.09
2022-11-10T13:51:04.906Z,101534.13
2022-11-10T13:53:52.049Z,101555.13
2022-11-10T13:56:21.532Z,101549.84
2022-11-10T13:58:48.420Z,101563.00
2022-11-10T14:01:14.934Z,101553.34
2022-11-10T14:03:53.336Z,101566.59
2022-11-10T14:06:27.384Z,101558.81
2022-11-10T14:09:10.185Z,101543.50
2022-11-10T14:11:47.054Z,101567.09
2022-11-10T14:14:31.710Z,101566.13
2022-11-10T14:16:58.370Z,101570.38
2022-11-10T14:19:29.963Z,101576.50
2022-11-10T14:22:01.200Z,101571.91
2022-11-10T14:24:31.225Z,101570.19
2022-11-10T14:27:00.555Z,101565.97
2022-11-10T14:29:28.676Z,101578.22
2022-11-10T14:31:58.024Z,101581.81
2022-11-10T14:34:25.175Z,101583.59
2022-11-10T14:36:59.809Z,101585.34
2022-11-10T14:39:35.532Z,101589.03
2022-11-10T14:42:05.390Z,101598.09
2022-11-10T14:44:34.460Z,101594.72
2022-11-10T14:47:31.282Z,101593.97
2022-11-10T14:50:24.982Z,101600.31
2022-11-10T14:53:38.014Z,101602.91
2022-11-10T14:56:07.859Z,101600.25
2022-11-10T14:58:39.348Z,101607.56
2022-11-10T15:01:08.001Z,101613.75
2022-11-10T15:03:42.876Z,101612.13
2022-11-10T15:06:12.359Z,101617.59
2022-11-10T15:08:40.491Z,101615.97
2022-11-10T15:11:07.527Z,101617.03
2022-11-10T15:13:37.711Z,101618.97
2022-11-10T15:16:22.924Z,101612.84
2022-11-10T15:18:51.119Z,101585.06
2022-11-10T15:21:26.965Z,101604.28
2022-11-10T15:23:55.784Z,101617.63
2022-11-10T15:26:25.117Z,101615.06
2022-11-10T15:28:52.726Z,101611.59
2022-11-10T15:31:24.073Z,101610.84
2022-11-10T15:33:56.679Z,101615.50
2022-11-10T15:36:23.161Z,101611.13
2022-11-10T15:39:23.444Z,101609.53
2022-11-10T15:41:56.713Z,101619.53
2022-11-10T15:44:25.916Z,101624.13
2022-11-10T15:46:54.448Z,101615.44
2022-11-10T15:49:47.943Z,101621.75
2022-11-10T15:52:16.375Z,101623.66
2022-11-10T15:54:43.701Z,101629.94
2022-11-10T15:57:15.402Z,101640.72
2022-11-10T15:59:42.613Z,101647.84
2022-11-10T16:02:39.405Z,101649.75
2022-11-10T16:05:14.627Z,101648.94
2022-11-10T16:07:41.135Z,101643.81
2022-11-10T16:10:07.810Z,101650.88
2022-11-10T16:12:34.990Z,101652.78
2022-11-10T16:15:01.728Z,101657.50
2022-11-10T16:17:28.531Z,101656.81
2022-11-10T16:19:55.044Z,101652.41
2022-11-10T16:22:21.743Z,101648.25
2022-11-10T16:24:48.335Z,101658.13
2022-11-10T16:27:14.987Z,101656.53
2022-11-10T16:29:42.574Z,101640.28
2022-11-10T16:32:12.519Z,101655.94
2022-11-10T16:34:39.027Z,101638.66
2022-11-10T16:37:05.638Z,101649.25
2022-11-10T16:39:32.201Z,101653.53
2022-11-10T16:41:58.736Z,101662.41
2022-11-10T16:44:25.685Z,101662.44
2022-11-10T16:46:58.317Z,101655.41
2022-11-10T16:49:43.871Z,101645.94
2022-11-10T16:52:18.934Z,101659.00
2022-11-10T16:54:45.472Z,101672.22
2022-11-10T16:57:16.933Z,101680.22
2022-11-10T16:59:45.669Z,101680.34
2022-11-10T17:02:39.839Z,101667.53
2022-11-10T17:05:06.762Z,101698.97
2022-11-10T17:07:33.851Z,101706.19
2022-11-10T17:10:01.394Z,101708.88
2022-11-10T17:12:28.045Z,101709.84
2022-11-10T17:14:54.608Z,101713.41
2022-11-10T17:17:21.428Z,101711.75
2022-11-10T17:19:49.464Z,101704.91
2022-11-10T17:22:21.698Z,101720.03
2022-11-10T17:24:53.323Z,101725.31
2022-11-10T17:27:20.210Z,101715.81
2022-11-10T17:29:47.053Z,101704.66
2022-11-10T17:32:13.588Z,101717.75
2022-11-10T17:34:40.174Z,101731.91
2022-11-10T17:37:06.739Z,101731.31
2022-11-10T17:39:33.687Z,101725.25
2022-11-10T17:42:00.430Z,101747.22
2022-11-10T17:44:26.981Z,101747.22
2022-11-10T17:46:53.551Z,101761.38
2022-11-10T17:49:20.266Z,101748.28
2022-11-10T17:51:46.873Z,101751.00
2022-11-10T17:54:15.078Z,101751.00
2022-11-10T17:56:42.022Z,101753.63
2022-11-10T17:59:08.545Z,101747.50
2022-11-10T18:01:35.325Z,101752.00
2022-11-10T18:04:01.942Z,101756.44
2022-11-10T18:06:28.486Z,101760.94
2022-11-10T18:08:55.071Z,101743.28
2022-11-10T18:11:21.575Z,101741.50
2022-11-10T18:13:49.258Z,101730.09
2022-11-10T18:16:15.774Z,101739.75
2022-11-10T18:18:42.631Z,101736.28
2022-11-10T18:21:09.962Z,101743.41
2022-11-10T18:23:36.579Z,101747.81
2022-11-10T18:26:08.230Z,101728.75
2022-11-10T18:28:35.790Z,101728.63
2022-11-10T18:31:06.985Z,101758.56
2022-11-10T18:33:33.664Z,101764.84
2022-11-10T18:36:00.405Z,101753.72
2022-11-10T18:38:27.453Z,101772.28
2022-11-10T18:40:53.943Z,101779.53
2022-11-10T18:43:20.647Z,101783.16
2022-11-10T18:45:47.467Z,101775.31
2022-11-10T18:48:14.020Z,101783.28
2022-11-10T18:50:40.741Z,101779.81
2022-11-10T18:53:07.368Z,101780.81
2022-11-10T18:55:33.915Z,101790.44
2022-11-10T18:58:00.460Z,101786.16
2022-11-10T19:00:27.053Z,101777.34
2022-11-10T19:02:53.620Z,101759.84
2022-11-10T19:05:20.117Z,101783.44
2022-11-10T19:07:46.637Z,101792.19
2022-11-10T19:10:13.548Z,101794.03
2022-11-10T19:12:40.093Z,101803.81
2022-11-10T19:15:07.028Z,101810.13
2022-11-10T19:17:33.550Z,101809.19
2022-11-10T19:20:00.098Z,101806.50
2022-11-10T19:22:26.730Z,101808.38
2022-11-10T19:25:07.609Z,101824.28
2022-11-10T19:27:35.081Z,101822.63
2022-11-10T19:30:01.844Z,101803.09
2022-11-10T19:32:29.582Z,101806.31
2022-11-10T19:34:56.189Z,101799.13
2022-11-10T19:37:22.791Z,101804.38
2022-11-10T19:39:49.296Z,101809.56
2022-11-10T19:42:15.828Z,101797.72
2022-11-10T19:44:42.339Z,101800.34
2022-11-10T19:47:09.003Z,101803.03
2022-11-10T19:49:38.681Z,101811.91
2022-11-10T19:52:05.226Z,101821.84
2022-11-10T19:54:31.737Z,101816.75
2022-11-10T19:56:58.234Z,101826.53
2022-11-10T19:59:24.784Z,101799.56
2022-11-10T20:01:51.489Z,101821.41
2022-11-10T20:04:18.118Z,101814.53
2022-11-10T20:06:44.755Z,101843.47
2022-11-10T20:09:11.334Z,101840.91
2022-11-10T20:11:37.913Z,101823.44
2022-11-10T20:14:05.684Z,101830.47
2022-11-10T20:16:32.228Z,101835.78
2022-11-10T20:18:58.783Z,101844.56
2022-11-10T20:21:25.431Z,101844.50
2022-11-10T20:23:54.206Z,101842.81
2022-11-10T20:26:21.246Z,101845.41
2022-11-10T20:28:47.882Z,101841.00
2022-11-10T20:31:20.218Z,101841.94
2022-11-10T20:33:50.274Z,101842.81
2022-11-10T20:36:21.003Z,101832.38
2022-11-10T20:38:51.089Z,101832.44
2022-11-10T20:41:21.163Z,101841.28
2022-11-10T20:43:48.347Z,101836.09
2022-11-10T20:46:33.359Z,101836.91
2022-11-10T20:49:04.923Z,101845.81
2022-11-10T20:51:31.450Z,101852.16
2022-11-10T20:54:00.340Z,101844.47
2022-11-10T20:56:29.965Z,101859.53
2022-11-10T20:58:58.631Z,101847.31
2022-11-10T21:01:26.068Z,101845.59
2022-11-10T21:03:53.002Z,101866.59
2022-11-10T21:06:19.557Z,101853.56
2022-11-10T21:08:46.073Z,101856.25
2022-11-10T21:11:32.864Z,101834.34
2022-11-10T21:14:01.457Z,101849.16
2022-11-10T21:16:28.440Z,101859.75
2022-11-10T21:18:56.292Z,101865.88
2022-11-10T21:21:27.818Z,101863.28
2022-11-10T21:23:57.322Z,101858.03
2022-11-10T21:26:24.485Z,101863.38
2022-11-10T21:28:51.118Z,101867.78
2022-11-10T21:31:18.540Z,101876.63
2022-11-10T21:33:45.099Z,101841.75
2022-11-10T21:36:11.710Z,101861.00
2022-11-10T21:38:38.303Z,101861.94
2022-11-10T21:41:04.886Z,101858.38
2022-11-10T21:43:31.446Z,101859.31
2022-11-10T21:45:58.584Z,101860.19
2022-11-10T21:48:25.103Z,101871.59
2022-11-10T21:50:51.666Z,101872.47
2022-11-10T21:53:18.317Z,101869.81
2022-11-10T21:55:44.935Z,101840.13
2022-11-10T21:58:11.549Z,101849.69
2022-11-10T22:00:38.051Z,101866.22
2022-11-10T22:03:05.803Z,101865.34
2022-11-10T22:05:33.441Z,101862.69
2022-11-10T22:07:59.986Z,101855.75
2022-11-10T22:10:45.585Z,101866.22
2022-11-10T22:13:35.079Z,101864.66
2022-11-10T22:16:20.408Z,101850.81
2022-11-10T22:18:46.987Z,101863.88
2022-11-10T22:21:13.516Z,101857.75
2022-11-10T22:23:59.199Z,101866.53
2022-11-10T22:26:25.706Z,101869.16
2022-11-10T22:28:52.238Z,101849.06
2022-11-10T22:31:18.792Z,101875.34
2022-11-10T22:33:45.499Z,101878.97
2022-11-10T22:36:14.532Z,101876.50
2022-11-10T22:38:42.360Z,101875.63
2022-11-10T22:41:34.642Z,101865.94
2022-11-10T22:44:06.151Z,101837.88
2022-11-10T22:46:36.058Z,101852.94
2022-11-10T22:49:06.850Z,101873.13
2022-11-10T22:51:35.579Z,101863.63
2022-11-10T22:54:02.480Z,101875.09
2022-11-10T22:56:31.010Z,101864.75
2022-11-10T22:59:00.056Z,101878.75
2022-11-10T23:01:27.304Z,101889.28
2022-11-10T23:03:54.104Z,101887.59
2022-11-10T23:06:20.841Z,101890.28
2022-11-10T23:08:47.610Z,101850.06
2022-11-10T23:11:17.096Z,101869.16
2022-11-10T23:13:43.732Z,101883.16
2022-11-10T23:16:13.348Z,101885.81
2022-11-10T23:18:42.119Z,101870.13
2022-11-10T23:21:10.749Z,101885.84
2022-11-10T23:23:39.298Z,101877.94
2022-11-10T23:26:11.369Z,101879.69
2022-11-10T23:28:38.954Z,101875.25
2022-11-10T23:31:10.559Z,101877.00
2022-11-10T23:33:38.807Z,101882.19
2022-11-10T23:36:06.562Z,101884.00
2022-11-10T23:38:34.741Z,101888.53
2022-11-10T23:41:02.567Z,101869.34
2022-11-10T23:43:29.384Z,101878.25
2022-11-10T23:46:12.108Z,101905.44
2022-11-10T23:48:39.887Z,101908.09
2022-11-10T23:51:09.190Z,101896.75
2022-11-10T23:53:35.810Z,101898.50
2022-11-10T23:56:05.698Z,101898.50
2022-11-10T23:58:32.644Z,101901.09
